createdAt,value
2022-12-25T00:00:58.018Z,3.2
2022-12-25T00:03:58.137Z,3.2
2022-12-25T00:06:57.991Z,3.1
2022-12-25T00:09:58.001Z,3.1
2022-12-25T00:12:58.003Z,3.1
2022-12-25T00:15:58.092Z,3.1
2022-12-25T00:18:58.017Z,3.1
2022-12-25T00:21:58.031Z,3
2022-12-25T00:24:58.030Z,2.9
2022-12-25T00:27:58.041Z,3
2022-12-25T00:30:58.111Z,3
2022-12-25T00:33:58.085Z,2.9
2022-12-25T00:36:58.055Z,2.8
2022-12-25T00:39:58.066Z,2.7
2022-12-25T00:42:58.059Z,2.7
2022-12-25T00:45:58.133Z,2.6
2022-12-25T00:48:58.069Z,2.5
2022-12-25T00:51:58.097Z,2.4
2022-12-25T00:54:58.077Z,2.4
2022-12-25T00:57:58.081Z,2.4
2022-12-25T01:00:58.126Z,2.4
2022-12-25T01:03:58.089Z,2.4
2022-12-25T01:06:58.084Z,2.4
2022-12-25T01:09:58.113Z,2.3
2022-12-25T01:12:58.086Z,2.2
2022-12-25T01:15:58.166Z,2.1
2022-12-25T01:18:58.086Z,2.1
2022-12-25T01:21:58.090Z,2.2
2022-12-25T01:24:58.090Z,2.1
2022-12-25T01:27:58.124Z,2.1
2022-12-25T01:30:58.090Z,2.2
2022-12-25T01:33:58.105Z,2.2
2022-12-25T01:36:58.100Z,2.2
2022-12-25T01:39:58.102Z,2.2
2022-12-25T01:42:58.098Z,2.2
2022-12-25T01:45:58.253Z,2.1
2022-12-25T01:48:58.104Z,2
2022-12-25T01:51:58.125Z,1.9
2022-12-25T01:54:58.104Z,1.9
2022-12-25T01:57:58.103Z,1.8
2022-12-25T02:00:58.125Z,1.8
2022-12-25T02:03:58.126Z,1.9
2022-12-25T02:06:58.108Z,1.9
2022-12-25T02:09:58.116Z,1.9
2022-12-25T02:12:58.112Z,1.9
2022-12-25T02:15:58.125Z,1.8
2022-12-25T02:18:58.118Z,1.7
2022-12-25T02:21:58.151Z,1.6
2022-12-25T02:24:58.124Z,1.6
2022-12-25T02:27:58.121Z,1.6
2022-12-25T02:30:58.134Z,1.5
2022-12-25T02:33:58.134Z,1.4
2022-12-25T02:36:58.146Z,1.4
2022-12-25T02:39:58.217Z,1.4
2022-12-25T02:42:58.144Z,1.4
2022-12-25T02:45:58.211Z,1.4
2022-12-25T02:48:58.152Z,1.3
2022-12-25T02:51:58.149Z,1.2
2022-12-25T02:54:58.142Z,1.2
2022-12-25T02:57:58.171Z,1.2
2022-12-25T03:00:58.166Z,1.2
2022-12-25T03:03:58.151Z,1.3
2022-12-25T03:06:58.140Z,1.4
2022-12-25T03:09:58.160Z,1.3
2022-12-25T03:12:58.148Z,1.2
2022-12-25T03:15:58.178Z,1
2022-12-25T03:18:58.150Z,1
2022-12-25T03:21:58.151Z,1
2022-12-25T03:24:58.252Z,0.9
2022-12-25T03:27:58.156Z,0.9
2022-12-25T03:30:58.159Z,1
2022-12-25T03:33:58.364Z,1.1
2022-12-25T03:36:58.356Z,1.2
2022-12-25T03:39:58.162Z,1.4
2022-12-25T03:42:58.169Z,1.5
2022-12-25T03:45:58.205Z,1.7
2022-12-25T03:48:58.162Z,1.7
2022-12-25T03:51:58.391Z,1.7
2022-12-25T03:54:58.160Z,1.6
2022-12-25T03:57:58.170Z,1.6
2022-12-25T04:00:58.167Z,1.7
2022-12-25T04:03:58.164Z,1.8
2022-12-25T04:06:58.164Z,1.9
2022-12-25T04:09:58.194Z,1.9
2022-12-25T04:12:58.174Z,1.8
2022-12-25T04:15:58.287Z,1.9
2022-12-25T04:18:58.178Z,1.9
2022-12-25T04:21:58.174Z,2
2022-12-25T04:24:58.176Z,2.1
2022-12-25T04:27:58.203Z,2.1
2022-12-25T04:30:58.239Z,2.1
2022-12-25T04:33:58.183Z,2.2
2022-12-25T04:36:58.187Z,2.3
2022-12-25T04:39:58.188Z,2.3
2022-12-25T04:42:58.189Z,2.3
2022-12-25T04:45:58.261Z,2.3
2022-12-25T04:48:58.196Z,2.2
2022-12-25T04:51:58.197Z,2.1
2022-12-25T04:54:58.192Z,1.9
2022-12-25T04:57:58.195Z,1.7
2022-12-25T05:00:58.191Z,1.5
2022-12-25T05:03:58.242Z,1.4
2022-12-25T05:06:58.199Z,1.2
2022-12-25T05:09:58.222Z,1.2
2022-12-25T05:12:58.204Z,1.2
2022-12-25T05:15:58.209Z,1.3
2022-12-25T05:18:58.209Z,1.4
2022-12-25T05:21:58.234Z,1.5
2022-12-25T05:24:58.203Z,1.5
2022-12-25T05:27:58.208Z,1.6
2022-12-25T05:30:58.248Z,1.7
2022-12-25T05:33:58.209Z,1.8
2022-12-25T05:36:58.217Z,1.9
2022-12-25T05:39:58.250Z,2
2022-12-25T05:42:58.217Z,2
2022-12-25T05:45:58.213Z,2
2022-12-25T05:48:58.217Z,2
2022-12-25T05:51:58.217Z,2.1
2022-12-25T05:54:58.217Z,2.1
2022-12-25T05:57:58.243Z,2.2
2022-12-25T06:00:58.222Z,2.3
2022-12-25T06:03:58.288Z,2.3
2022-12-25T06:06:58.227Z,2.4
2022-12-25T06:09:58.234Z,2.4
2022-12-25T06:12:58.229Z,2.4
2022-12-25T06:15:58.292Z,2.4
2022-12-25T06:18:58.235Z,2.5
2022-12-25T06:21:58.231Z,2.4
2022-12-25T06:24:58.236Z,2.4
2022-12-25T06:27:58.242Z,2.3
2022-12-25T06:30:58.240Z,2.3
2022-12-25T06:33:58.270Z,2.3
2022-12-25T06:36:58.241Z,2.3
2022-12-25T06:39:58.249Z,2.3
2022-12-25T06:42:58.246Z,2.2
2022-12-25T06:45:58.274Z,2.1
2022-12-25T06:48:58.251Z,2.1
2022-12-25T06:51:58.273Z,2.1
2022-12-25T06:54:58.253Z,2.1
2022-12-25T06:57:58.257Z,2.1
2022-12-25T07:00:58.321Z,2.1
2022-12-25T07:03:58.280Z,2.2
2022-12-25T07:07:00.766Z,2.2
2022-12-25T07:09:58.290Z,2.2
2022-12-25T07:12:58.272Z,2.2
2022-12-25T07:15:58.443Z,2.2
2022-12-25T07:18:58.266Z,2.2
2022-12-25T07:21:58.271Z,2.2
2022-12-25T07:24:58.279Z,2.3
2022-12-25T07:27:58.294Z,2.2
2022-12-25T07:30:58.303Z,2.2
2022-12-25T07:33:58.343Z,2.2
2022-12-25T07:36:58.299Z,2.2
2022-12-25T07:39:58.314Z,2.2
2022-12-25T07:42:58.316Z,2.1
2022-12-25T07:45:58.405Z,2.1
2022-12-25T07:48:58.284Z,2
2022-12-25T07:51:58.284Z,1.9
2022-12-25T07:54:58.288Z,1.9
2022-12-25T07:57:58.295Z,1.8
2022-12-25T08:00:58.406Z,1.8
2022-12-25T08:03:58.407Z,1.7
2022-12-25T08:06:58.293Z,1.7
2022-12-25T08:09:58.289Z,1.7
2022-12-25T08:12:58.295Z,1.8
2022-12-25T08:15:58.317Z,1.9
2022-12-25T08:18:58.299Z,2.1
2022-12-25T08:21:58.318Z,2.2
2022-12-25T08:24:58.302Z,2.4
2022-12-25T08:27:58.305Z,2.7
2022-12-25T08:30:58.343Z,3
2022-12-25T08:33:58.328Z,3.5
2022-12-25T08:36:58.308Z,3.9
2022-12-25T08:39:58.344Z,4.3
2022-12-25T08:42:58.312Z,4.6
2022-12-25T08:45:58.379Z,4.7
2022-12-25T08:48:58.315Z,4.7
2022-12-25T08:51:58.333Z,4.8
2022-12-25T08:54:58.320Z,5.1
2022-12-25T08:57:58.348Z,5.3
2022-12-25T09:00:58.349Z,5.5
2022-12-25T09:03:58.322Z,5.6
2022-12-25T09:06:58.329Z,5.6
2022-12-25T09:09:58.338Z,5.7
2022-12-25T09:12:58.358Z,5.7
2022-12-25T09:15:58.413Z,5.7
2022-12-25T09:18:58.342Z,5.7
2022-12-25T09:21:58.347Z,5.6
2022-12-25T09:24:58.351Z,5.6
2022-12-25T09:27:58.362Z,5.6
2022-12-25T09:30:58.472Z,5.6
2022-12-25T09:33:58.385Z,5.6
2022-12-25T09:36:58.357Z,5.7
2022-12-25T09:39:58.366Z,5.7
2022-12-25T09:42:58.406Z,5.7
2022-12-25T09:45:58.383Z,5.8
2022-12-25T09:48:58.368Z,5.8
2022-12-25T09:51:58.402Z,5.9
2022-12-25T09:54:58.374Z,6
2022-12-25T09:57:58.385Z,6
2022-12-25T10:00:58.386Z,6.1
2022-12-25T10:03:58.475Z,6.2
2022-12-25T10:06:58.395Z,6.2
2022-12-25T10:09:58.418Z,6.3
2022-12-25T10:12:58.402Z,6.4
2022-12-25T10:15:58.471Z,6.4
2022-12-25T10:18:58.405Z,6.4
2022-12-25T10:21:58.424Z,6.5
2022-12-25T10:24:58.415Z,6.5
2022-12-25T10:27:58.441Z,6.6
2022-12-25T10:30:58.501Z,6.6
2022-12-25T10:33:58.427Z,6.7
2022-12-25T10:36:58.426Z,6.7
2022-12-25T10:39:58.433Z,6.8
2022-12-25T10:42:58.432Z,6.8
2022-12-25T10:45:58.463Z,6.9
2022-12-25T10:48:58.434Z,6.9
2022-12-25T10:51:58.443Z,7
2022-12-25T10:54:58.456Z,7
2022-12-25T10:57:58.445Z,7.1
2022-12-25T11:00:58.450Z,7.1
2022-12-25T11:03:58.488Z,7.2
2022-12-25T11:06:58.464Z,7.2
2022-12-25T11:10:04.564Z,7.3
2022-12-25T11:12:58.467Z,7.4
2022-12-25T11:15:58.503Z,7.5
2022-12-25T11:18:58.473Z,7.6
2022-12-25T11:21:58.507Z,7.7
2022-12-25T11:24:58.475Z,7.8
2022-12-25T11:27:58.479Z,7.8
2022-12-25T11:30:58.527Z,7.8
2022-12-25T11:33:58.485Z,7.8
2022-12-25T11:36:58.487Z,7.8
2022-12-25T11:39:58.517Z,7.7
2022-12-25T11:43:02.567Z,7.7
2022-12-25T11:45:58.495Z,7.7
2022-12-25T11:48:58.499Z,7.7
2022-12-25T11:51:58.504Z,7.7
2022-12-25T11:54:58.503Z,7.7
2022-12-25T11:57:58.553Z,7.7
2022-12-25T12:00:58.516Z,7.8
2022-12-25T12:03:58.600Z,7.9
2022-12-25T12:06:58.514Z,8.1
2022-12-25T12:09:58.521Z,8.2
2022-12-25T12:12:58.518Z,8.3
2022-12-25T12:15:58.630Z,8.3
2022-12-25T12:18:58.516Z,8.4
2022-12-25T12:21:58.523Z,8.5
2022-12-25T12:24:58.526Z,8.5
2022-12-25T12:28:04.757Z,8.5
2022-12-25T12:30:58.530Z,8.5
2022-12-25T12:33:58.564Z,8.5
2022-12-25T12:36:58.547Z,8.5
2022-12-25T12:39:58.549Z,8.6
2022-12-25T12:42:58.548Z,8.5
2022-12-25T12:45:58.610Z,8.5
2022-12-25T12:48:58.559Z,8.5
2022-12-25T12:51:58.585Z,8.4
2022-12-25T12:54:58.585Z,8.4
2022-12-25T12:57:58.567Z,8.3
2022-12-25T13:00:58.624Z,8.3
2022-12-25T13:03:58.575Z,8.3
2022-12-25T13:06:58.578Z,8.3
2022-12-25T13:09:58.606Z,8.2
2022-12-25T13:12:58.587Z,8.2
2022-12-25T13:15:58.596Z,8.1
2022-12-25T13:18:58.605Z,8.1
2022-12-25T13:21:58.603Z,8.1
2022-12-25T13:24:58.604Z,8.1
2022-12-25T13:27:58.633Z,8.1
2022-12-25T13:30:58.609Z,8.2
2022-12-25T13:33:58.621Z,8.2
2022-12-25T13:36:58.627Z,8.1
2022-12-25T13:39:58.643Z,8.1
2022-12-25T13:42:58.649Z,8.1
2022-12-25T13:45:58.683Z,8.1
2022-12-25T13:48:58.644Z,8
2022-12-25T13:51:58.649Z,8
2022-12-25T13:54:58.651Z,7.9
2022-12-25T13:57:58.670Z,7.9
2022-12-25T14:00:58.709Z,7.9
2022-12-25T14:03:58.691Z,7.8
2022-12-25T14:06:58.672Z,7.8
2022-12-25T14:09:58.681Z,7.8
2022-12-25T14:12:58.685Z,7.8
2022-12-25T14:15:58.692Z,7.7
2022-12-25T14:18:58.701Z,7.7
2022-12-25T14:21:58.735Z,7.7
2022-12-25T14:24:58.728Z,7.7
2022-12-25T14:27:58.719Z,7.7
2022-12-25T14:30:58.724Z,7.7
2022-12-25T14:33:58.732Z,7.7
2022-12-25T14:36:58.728Z,7.6
2022-12-25T14:39:58.772Z,7.6
2022-12-25T14:42:58.752Z,7.6
2022-12-25T14:45:58.796Z,7.6
2022-12-25T14:48:58.771Z,7.6
2022-12-25T14:51:58.760Z,7.6
2022-12-25T14:54:58.761Z,7.6
2022-12-25T14:57:58.802Z,7.6
2022-12-25T15:00:58.845Z,7.6
2022-12-25T15:03:58.833Z,7.6
2022-12-25T15:06:58.794Z,7.6
2022-12-25T15:10:18.764Z,7.6
2022-12-25T15:12:58.804Z,7.6
2022-12-25T15:15:58.871Z,7.6
2022-12-25T15:18:58.818Z,7.6
2022-12-25T15:21:58.823Z,7.6
2022-12-25T15:25:01.764Z,7.6
2022-12-25T15:27:58.832Z,7.6
2022-12-25T15:30:58.896Z,7.7
2022-12-25T15:33:58.896Z,7.6
2022-12-25T15:36:58.851Z,7.7
2022-12-25T15:39:59.546Z,7.7
2022-12-25T15:42:59.834Z,7.7
2022-12-25T15:45:58.892Z,7.7
2022-12-25T15:48:58.878Z,7.7
2022-12-25T15:51:58.913Z,7.7
2022-12-25T15:54:58.895Z,7.7
2022-12-25T15:57:58.900Z,7.7
2022-12-25T16:00:58.904Z,7.7
2022-12-25T16:03:58.916Z,7.7
2022-12-25T16:06:58.929Z,7.7
2022-12-25T16:09:58.955Z,7.6
2022-12-25T16:12:58.934Z,7.7
2022-12-25T16:15:59.008Z,7.6
2022-12-25T16:18:58.950Z,7.7
2022-12-25T16:21:58.963Z,7.6
2022-12-25T16:24:58.977Z,7.6
2022-12-25T16:27:59.004Z,7.7
2022-12-25T16:30:58.998Z,7.7
2022-12-25T16:33:58.999Z,7.7
2022-12-25T16:36:58.999Z,7.7
2022-12-25T16:39:59.008Z,7.7
2022-12-25T16:42:59.017Z,7.7
2022-12-25T16:45:59.159Z,7.7
2022-12-25T16:48:59.028Z,7.8
2022-12-25T16:51:59.039Z,7.8
2022-12-25T16:54:59.049Z,7.8
2022-12-25T16:57:59.061Z,7.8
2022-12-25T17:00:59.069Z,7.8
2022-12-25T17:03:59.178Z,7.8
2022-12-25T17:06:59.084Z,7.8
2022-12-25T17:09:59.205Z,7.8
2022-12-25T17:12:59.105Z,7.8
2022-12-25T17:15:59.231Z,7.8
2022-12-25T17:18:59.127Z,7.8
2022-12-25T17:21:59.154Z,7.8
2022-12-25T17:24:59.137Z,7.8
2022-12-25T17:27:59.151Z,7.8
2022-12-25T17:30:59.190Z,7.8
2022-12-25T17:33:59.161Z,7.8
2022-12-25T17:36:59.227Z,7.8
2022-12-25T17:39:59.208Z,7.7
2022-12-25T17:42:59.190Z,7.8
2022-12-25T17:45:59.210Z,7.8
2022-12-25T17:48:59.231Z,7.8
2022-12-25T17:51:59.216Z,7.8
2022-12-25T17:54:59.241Z,7.8
2022-12-25T17:57:59.267Z,7.7
2022-12-25T18:00:59.243Z,7.7
2022-12-25T18:03:59.343Z,7.8
2022-12-25T18:06:59.268Z,7.8
2022-12-25T18:09:59.278Z,7.8
2022-12-25T18:12:59.288Z,7.8
2022-12-25T18:15:59.449Z,7.8
2022-12-25T18:18:59.311Z,7.8
2022-12-25T18:21:59.317Z,7.8
2022-12-25T18:24:59.334Z,7.8
2022-12-25T18:27:59.438Z,7.9
2022-12-25T18:30:59.346Z,7.8
2022-12-25T18:33:59.392Z,7.9
2022-12-25T18:36:59.369Z,7.8
2022-12-25T18:39:59.378Z,7.9
2022-12-25T18:43:03.080Z,7.9
2022-12-25T18:45:59.450Z,7.9
2022-12-25T18:48:59.420Z,7.9
2022-12-25T18:52:47.115Z,7.9
2022-12-25T18:54:59.436Z,7.9
2022-12-25T18:57:59.452Z,7.9
2022-12-25T19:00:59.497Z,7.9
2022-12-25T19:04:04.883Z,7.9
2022-12-25T19:06:59.491Z,7.9
2022-12-25T19:09:59.528Z,7.9
2022-12-25T19:12:59.515Z,7.9
2022-12-25T19:15:59.577Z,7.9
2022-12-25T19:18:59.540Z,7.9
2022-12-25T19:21:59.553Z,7.9
2022-12-25T19:24:59.565Z,7.8
2022-12-25T19:27:59.606Z,7.9
2022-12-25T19:30:59.610Z,7.9
2022-12-25T19:33:59.609Z,7.9
2022-12-25T19:36:59.617Z,7.9
2022-12-25T19:39:59.631Z,8
2022-12-25T19:42:59.636Z,8
2022-12-25T19:45:59.720Z,8.1
2022-12-25T19:48:59.669Z,8.1
2022-12-25T19:51:59.674Z,8.2
2022-12-25T19:54:59.702Z,8.2
2022-12-25T19:57:59.710Z,8.3
2022-12-25T20:00:59.823Z,8.3
2022-12-25T20:03:59.766Z,8.3
2022-12-25T20:06:59.754Z,8.3
2022-12-25T20:09:59.765Z,8.4
2022-12-25T20:12:59.783Z,8.4
2022-12-25T20:15:59.809Z,8.4
2022-12-25T20:18:59.850Z,8.4
2022-12-25T20:21:59.843Z,8.5
2022-12-25T20:24:59.830Z,8.5
2022-12-25T20:27:59.850Z,8.6
2022-12-25T20:30:59.855Z,8.6
2022-12-25T20:33:59.873Z,8.7
2022-12-25T20:36:59.870Z,8.7
2022-12-25T20:39:59.904Z,8.7
2022-12-25T20:42:59.887Z,8.7
2022-12-25T20:46:00.034Z,8.8
2022-12-25T20:48:59.891Z,8.9
2022-12-25T20:52:05.074Z,9
2022-12-25T20:54:59.907Z,9.1
2022-12-25T20:57:59.941Z,9.3
2022-12-25T21:00:59.934Z,9.4
2022-12-25T21:04:00.029Z,9.6
2022-12-25T21:06:59.935Z,9.7
2022-12-25T21:09:59.939Z,9.8
2022-12-25T21:12:59.944Z,9.9
2022-12-25T21:15:59.997Z,9.9
2022-12-25T21:18:59.963Z,10
2022-12-25T21:21:59.966Z,10
2022-12-25T21:24:59.972Z,10
2022-12-25T21:27:59.975Z,10.1
2022-12-25T21:31:00.090Z,10.1
2022-12-25T21:33:59.996Z,10.2
2022-12-25T21:36:59.992Z,10.2
2022-12-25T21:39:59.984Z,10.3
2022-12-25T21:42:59.987Z,10.3
2022-12-25T21:46:00.046Z,10.4
2022-12-25T21:48:59.993Z,10.4
2022-12-25T21:52:00.054Z,10.4
2022-12-25T21:55:00.008Z,10.4
2022-12-25T21:58:00.017Z,10.4
2022-12-25T22:01:00.072Z,10.5
2022-12-25T22:04:00.035Z,10.5
2022-12-25T22:07:00.117Z,10.5
2022-12-25T22:10:00.052Z,10.5
2022-12-25T22:13:00.145Z,10.5
2022-12-25T22:16:00.140Z,10.5
2022-12-25T22:19:00.065Z,10.5
2022-12-25T22:22:00.060Z,10.5
2022-12-25T22:25:00.080Z,10.5
2022-12-25T22:28:00.248Z,10.5
2022-12-25T22:31:00.094Z,10.5
2022-12-25T22:34:00.089Z,10.6
2022-12-25T22:37:00.067Z,10.6
2022-12-25T22:40:00.123Z,10.6
2022-12-25T22:43:00.111Z,10.6
2022-12-25T22:46:00.153Z,10.7
2022-12-25T22:49:00.113Z,10.7
2022-12-25T22:52:00.105Z,10.7
2022-12-25T22:55:00.152Z,10.7
2022-12-25T22:58:00.115Z,10.7
2022-12-25T23:01:00.143Z,10.7
2022-12-25T23:04:00.223Z,10.8
2022-12-25T23:07:00.138Z,10.8
2022-12-25T23:10:00.163Z,10.8
2022-12-25T23:13:00.130Z,10.8
2022-12-25T23:16:00.248Z,10.8
2022-12-25T23:19:00.126Z,10.8
2022-12-25T23:22:00.149Z,10.8
2022-12-25T23:25:00.152Z,10.9
2022-12-25T23:28:00.179Z,10.8
2022-12-25T23:31:00.192Z,10.8
2022-12-25T23:34:00.147Z,10.8
2022-12-25T23:37:00.150Z,10.8
2022-12-25T23:40:00.211Z,10.8
2022-12-25T23:43:00.159Z,10.8
2022-12-25T23:46:00.246Z,10.8
2022-12-25T23:49:00.176Z,10.8
2022-12-25T23:52:00.172Z,10.8
2022-12-25T23:55:00.175Z,10.9
2022-12-25T23:58:00.242Z,10.8
